Terminal Aerodrome Forecast
Issued by NWS Omaha/Valley, NE

Home | Current Version | Previous Version | Graphics & Text | Print | Product List | Glossary On
Versions: 1 2 3 4 5 6 7 8 9 10 11 12 13 14 15
736
FTUS43 KOAX 211120
TAFOFK
TAF
KOFK 211120Z 2112/2212 28007KT P6SM FEW250
     FM211600 28009KT P6SM FEW040 SCT250
     FM220000 24005KT P6SM SCT250=

USA.gov is the U.S. government's official web portal to all federal, state and local government web resources and services.